バクー の空港の天気 - METARとTAF

ヘイダル・アリエフ国際空港(バクー) ( UBBB / BAK ) - アゼルバイジャン バクー
飛行場実況気象(Metar)
観測時間01/21 22:00 AZT (01/21 18:00 UTC)
風向・風速南西 13m/s
視程8000m
天気現象
全天の4割程度の雲 雲底高度 300m
全天の8割程度の雲 雲底高度 6100m
気温7℃
湿度87%
気圧1014hPa
METARUBBB 211800Z 22026KT 8000 SCT010 BKN200 07/05 Q1014 R88/CLRD// NOSIG
過去の天気等 Google飛行場航空写真 Wunderground天気予報

過去48時間のMETAR

飛行場予報(TAF)
発表時間: 1/21 21:02 AZT (1/21 17:02 UTC)
予報対象時間: 21日22時 AZT ~ 22日22時 AZT
風向・風速南南西 8m/s 瞬間風速 13m/s
視程8,000m
全天の4割程度の雲 雲底高度 240m
全天の8割程度の雲 雲底高度 3,050m
22日0時 AZT ~ 22日2時 AZT に徐々に
風向・風速西北西 4m/s
視程3,000m
天気現象もや
全天の4割程度の雲 雲底高度 150m
22日2時 AZT ~ 22日8時 AZT に一時的に
風向・風速不定 2m/s
視程800m
天気現象
全天の4割程度の雲 雲底高度 90m
22日9時 AZT ~ 22日11時 AZT に徐々に
風向・風速南 6m/s
視程10km以上
天気現象運行に影響にある天気現象が終了
全天の8割程度の雲 雲底高度 370m
TAF UBBB 211702Z 2118/2218 20016G26KT 8000 SCT008 BKN100 TX09/2210Z TN03/2201Z
BECMG 2120/2122 30008KT 3000 BR SCT005
TEMPO 2122/2204 VRB04KT 0800 FG SCT003
BECMG 2205/2207 17012KT 9999 NSW BKN012